sensor_id;sensor_type;location;lat;lon;timestamp;P1;durP1;ratioP1;P2;durP2;ratioP2
64868;SDS011;51349;52.424;10.840;2023-05-14T00:03:04;6.50;;;5.90;;
64868;SDS011;51349;52.424;10.840;2023-05-14T00:08:05;6.32;;;5.82;;
64868;SDS011;51349;52.424;10.840;2023-05-14T00:13:05;7.03;;;6.32;;
64868;SDS011;51349;52.424;10.840;2023-05-14T00:18:06;5.68;;;5.15;;
64868;SDS011;51349;52.424;10.840;2023-05-14T00:23:11;5.95;;;5.22;;
64868;SDS011;51349;52.424;10.840;2023-05-14T00:28:11;6.35;;;5.55;;
64868;SDS011;51349;52.424;10.840;2023-05-14T00:33:12;6.00;;;5.60;;
64868;SDS011;51349;52.424;10.840;2023-05-14T00:38:13;6.22;;;5.72;;
64868;SDS011;51349;52.424;10.840;2023-05-14T00:43:18;6.05;;;5.55;;
64868;SDS011;51349;52.424;10.840;2023-05-14T00:48:20;6.50;;;6.00;;
64868;SDS011;51349;52.424;10.840;2023-05-14T00:53:21;7.07;;;6.43;;
64868;SDS011;51349;52.424;10.840;2023-05-14T00:58:22;6.60;;;6.10;;
64868;SDS011;51349;52.424;10.840;2023-05-14T01:03:24;6.50;;;5.40;;
64868;SDS011;51349;52.424;10.840;2023-05-14T01:13:43;6.13;;;5.65;;
64868;SDS011;51349;52.424;10.840;2023-05-14T01:18:58;6.57;;;5.50;;
64868;SDS011;51349;52.424;10.840;2023-05-14T01:24:00;6.03;;;5.53;;
64868;SDS011;51349;52.424;10.840;2023-05-14T01:29:10;6.07;;;5.68;;
64868;SDS011;51349;52.424;10.840;2023-05-14T01:34:18;6.18;;;5.65;;
64868;SDS011;51349;52.424;10.840;2023-05-14T01:39:22;6.68;;;5.97;;
64868;SDS011;51349;52.424;10.840;2023-05-14T01:44:24;5.40;;;5.10;;
64868;SDS011;51349;52.424;10.840;2023-05-14T01:49:25;6.07;;;5.50;;
64868;SDS011;51349;52.424;10.840;2023-05-14T01:54:26;6.93;;;5.20;;
64868;SDS011;51349;52.424;10.840;2023-05-14T01:59:26;6.28;;;5.45;;
64868;SDS011;51349;52.424;10.840;2023-05-14T02:04:28;6.00;;;5.60;;
64868;SDS011;51349;52.424;10.840;2023-05-14T02:09:29;6.03;;;5.53;;
64868;SDS011;51349;52.424;10.840;2023-05-14T02:14:30;6.10;;;5.70;;
64868;SDS011;51349;52.424;10.840;2023-05-14T02:19:30;5.88;;;5.38;;
64868;SDS011;51349;52.424;10.840;2023-05-14T02:24:31;6.07;;;5.57;;
64868;SDS011;51349;52.424;10.840;2023-05-14T02:29:32;5.73;;;5.33;;
64868;SDS011;51349;52.424;10.840;2023-05-14T02:34:32;6.00;;;5.60;;
64868;SDS011;51349;52.424;10.840;2023-05-14T02:39:33;6.13;;;5.73;;
64868;SDS011;51349;52.424;10.840;2023-05-14T02:44:34;5.90;;;5.50;;
64868;SDS011;51349;52.424;10.840;2023-05-14T02:49:35;6.37;;;5.87;;
64868;SDS011;51349;52.424;10.840;2023-05-14T02:54:35;7.23;;;6.00;;
64868;SDS011;51349;52.424;10.840;2023-05-14T02:59:36;6.07;;;5.57;;
64868;SDS011;51349;52.424;10.840;2023-05-14T03:04:36;6.00;;;5.60;;
64868;SDS011;51349;52.424;10.840;2023-05-14T03:09:37;5.90;;;5.40;;
64868;SDS011;51349;52.424;10.840;2023-05-14T03:14:38;5.67;;;5.27;;
64868;SDS011;51349;52.424;10.840;2023-05-14T03:19:38;6.33;;;5.80;;
64868;SDS011;51349;52.424;10.840;2023-05-14T03:24:39;5.93;;;5.40;;
64868;SDS011;51349;52.424;10.840;2023-05-14T03:29:40;5.80;;;5.40;;
64868;SDS011;51349;52.424;10.840;2023-05-14T03:34:40;6.10;;;5.70;;
64868;SDS011;51349;52.424;10.840;2023-05-14T03:39:41;5.67;;;5.27;;
64868;SDS011;51349;52.424;10.840;2023-05-14T03:44:42;5.83;;;5.33;;
64868;SDS011;51349;52.424;10.840;2023-05-14T03:49:42;5.50;;;5.10;;
64868;SDS011;51349;52.424;10.840;2023-05-14T03:54:43;5.70;;;5.30;;
64868;SDS011;51349;52.424;10.840;2023-05-14T03:59:44;6.30;;;5.77;;
64868;SDS011;51349;52.424;10.840;2023-05-14T04:04:44;6.10;;;5.60;;
64868;SDS011;51349;52.424;10.840;2023-05-14T04:09:45;7.40;;;6.80;;
64868;SDS011;51349;52.424;10.840;2023-05-14T04:14:45;6.60;;;6.00;;
64868;SDS011;51349;52.424;10.840;2023-05-14T04:19:46;7.60;;;6.90;;
64868;SDS011;51349;52.424;10.840;2023-05-14T04:24:47;7.67;;;7.07;;
64868;SDS011;51349;52.424;10.840;2023-05-14T04:29:48;7.60;;;7.00;;
64868;SDS011;51349;52.424;10.840;2023-05-14T04:34:49;6.97;;;6.47;;
64868;SDS011;51349;52.424;10.840;2023-05-14T04:39:50;7.40;;;6.70;;
64868;SDS011;51349;52.424;10.840;2023-05-14T04:44:50;7.70;;;7.00;;
64868;SDS011;51349;52.424;10.840;2023-05-14T04:49:51;6.90;;;6.40;;
64868;SDS011;51349;52.424;10.840;2023-05-14T04:54:52;7.00;;;6.50;;
64868;SDS011;51349;52.424;10.840;2023-05-14T04:59:52;6.80;;;6.30;;
64868;SDS011;51349;52.424;10.840;2023-05-14T05:04:53;7.43;;;6.83;;
64868;SDS011;51349;52.424;10.840;2023-05-14T05:09:54;8.73;;;7.93;;
64868;SDS011;51349;52.424;10.840;2023-05-14T05:14:57;8.07;;;7.47;;
64868;SDS011;51349;52.424;10.840;2023-05-14T05:19:58;8.50;;;7.70;;
64868;SDS011;51349;52.424;10.840;2023-05-14T05:24:58;9.07;;;8.37;;
64868;SDS011;51349;52.424;10.840;2023-05-14T05:30:02;8.73;;;8.03;;
64868;SDS011;51349;52.424;10.840;2023-05-14T05:35:03;9.93;;;9.13;;
64868;SDS011;51349;52.424;10.840;2023-05-14T05:40:04;9.30;;;8.60;;
64868;SDS011;51349;52.424;10.840;2023-05-14T05:45:06;9.68;;;8.65;;
64868;SDS011;51349;52.424;10.840;2023-05-14T05:50:07;9.63;;;8.83;;
64868;SDS011;51349;52.424;10.840;2023-05-14T05:55:08;9.57;;;8.77;;
64868;SDS011;51349;52.424;10.840;2023-05-14T06:00:09;10.02;;;9.18;;
64868;SDS011;51349;52.424;10.840;2023-05-14T06:05:13;10.73;;;9.73;;
64868;SDS011;51349;52.424;10.840;2023-05-14T06:10:13;10.63;;;9.73;;
64868;SDS011;51349;52.424;10.840;2023-05-14T06:15:14;10.73;;;9.82;;
64868;SDS011;51349;52.424;10.840;2023-05-14T06:20:15;10.15;;;9.35;;
64868;SDS011;51349;52.424;10.840;2023-05-14T06:25:16;10.60;;;9.68;;
64868;SDS011;51349;52.424;10.840;2023-05-14T06:30:16;10.68;;;9.68;;
64868;SDS011;51349;52.424;10.840;2023-05-14T06:35:17;10.65;;;9.90;;
64868;SDS011;51349;52.424;10.840;2023-05-14T06:40:18;10.25;;;9.32;;
64868;SDS011;51349;52.424;10.840;2023-05-14T06:45:19;18.35;;;14.13;;
64868;SDS011;51349;52.424;10.840;2023-05-14T06:50:20;10.18;;;9.20;;
64868;SDS011;51349;52.424;10.840;2023-05-14T06:55:20;9.60;;;8.90;;
64868;SDS011;51349;52.424;10.840;2023-05-14T07:00:21;9.52;;;8.82;;
64868;SDS011;51349;52.424;10.840;2023-05-14T07:05:23;8.98;;;8.18;;
64868;SDS011;51349;52.424;10.840;2023-05-14T07:10:24;9.75;;;8.60;;
64868;SDS011;51349;52.424;10.840;2023-05-14T07:15:25;8.88;;;7.90;;
64868;SDS011;51349;52.424;10.840;2023-05-14T07:20:25;7.60;;;7.10;;
64868;SDS011;51349;52.424;10.840;2023-05-14T07:25:26;8.20;;;7.50;;
64868;SDS011;51349;52.424;10.840;2023-05-14T07:30:27;6.70;;;6.20;;
64868;SDS011;51349;52.424;10.840;2023-05-14T07:35:28;6.90;;;6.40;;
64868;SDS011;51349;52.424;10.840;2023-05-14T07:40:28;6.90;;;6.35;;
64868;SDS011;51349;52.424;10.840;2023-05-14T07:45:29;7.30;;;6.60;;
64868;SDS011;51349;52.424;10.840;2023-05-14T07:50:29;6.72;;;6.25;;
64868;SDS011;51349;52.424;10.840;2023-05-14T07:55:30;6.55;;;6.15;;
64868;SDS011;51349;52.424;10.840;2023-05-14T08:00:31;6.05;;;5.60;;
64868;SDS011;51349;52.424;10.840;2023-05-14T08:05:31;6.15;;;5.75;;
64868;SDS011;51349;52.424;10.840;2023-05-14T08:10:32;6.20;;;5.60;;
64868;SDS011;51349;52.424;10.840;2023-05-14T08:15:33;6.03;;;5.63;;
64868;SDS011;51349;52.424;10.840;2023-05-14T08:20:33;6.30;;;5.80;;
64868;SDS011;51349;52.424;10.840;2023-05-14T08:25:34;5.30;;;4.90;;
64868;SDS011;51349;52.424;10.840;2023-05-14T08:30:35;4.90;;;4.60;;
64868;SDS011;51349;52.424;10.840;2023-05-14T08:35:35;5.00;;;4.50;;
64868;SDS011;51349;52.424;10.840;2023-05-14T08:40:36;4.90;;;4.40;;
64868;SDS011;51349;52.424;10.840;2023-05-14T08:45:37;5.75;;;5.25;;
64868;SDS011;51349;52.424;10.840;2023-05-14T08:50:39;5.03;;;4.65;;
64868;SDS011;51349;52.424;10.840;2023-05-14T08:55:40;5.47;;;4.97;;
64868;SDS011;51349;52.424;10.840;2023-05-14T09:00:41;5.47;;;5.00;;
64868;SDS011;51349;52.424;10.840;2023-05-14T09:05:42;6.50;;;5.10;;
64868;SDS011;51349;52.424;10.840;2023-05-14T09:10:44;8.20;;;5.47;;
64868;SDS011;51349;52.424;10.840;2023-05-14T09:15:45;6.07;;;5.68;;
64868;SDS011;51349;52.424;10.840;2023-05-14T09:20:47;5.60;;;5.10;;
64868;SDS011;51349;52.424;10.840;2023-05-14T09:25:48;5.25;;;4.85;;
64868;SDS011;51349;52.424;10.840;2023-05-14T09:30:49;6.80;;;4.70;;
64868;SDS011;51349;52.424;10.840;2023-05-14T09:35:59;4.80;;;4.43;;
64868;SDS011;51349;52.424;10.840;2023-05-14T09:41:00;4.63;;;4.25;;
64868;SDS011;51349;52.424;10.840;2023-05-14T09:46:01;4.53;;;4.13;;
64868;SDS011;51349;52.424;10.840;2023-05-14T09:51:01;6.07;;;4.50;;
64868;SDS011;51349;52.424;10.840;2023-05-14T09:56:04;6.13;;;4.43;;
64868;SDS011;51349;52.424;10.840;2023-05-14T10:01:05;4.57;;;4.18;;
64868;SDS011;51349;52.424;10.840;2023-05-14T10:06:06;5.28;;;4.68;;
64868;SDS011;51349;52.424;10.840;2023-05-14T10:11:10;4.82;;;4.43;;
64868;SDS011;51349;52.424;10.840;2023-05-14T10:21:34;4.93;;;4.53;;
64868;SDS011;51349;52.424;10.840;2023-05-14T10:26:37;5.00;;;4.60;;
64868;SDS011;51349;52.424;10.840;2023-05-14T10:36:58;5.10;;;4.70;;
64868;SDS011;51349;52.424;10.840;2023-05-14T10:42:01;6.38;;;4.40;;
64868;SDS011;51349;52.424;10.840;2023-05-14T10:47:03;6.00;;;4.10;;
64868;SDS011;51349;52.424;10.840;2023-05-14T10:52:06;4.55;;;4.15;;
64868;SDS011;51349;52.424;10.840;2023-05-14T10:57:09;8.98;;;4.70;;
64868;SDS011;51349;52.424;10.840;2023-05-14T11:02:17;4.60;;;4.22;;
64868;SDS011;51349;52.424;10.840;2023-05-14T11:07:23;4.95;;;4.53;;
64868;SDS011;51349;52.424;10.840;2023-05-14T11:12:27;5.03;;;4.70;;
64868;SDS011;51349;52.424;10.840;2023-05-14T11:17:29;5.78;;;5.20;;
64868;SDS011;51349;52.424;10.840;2023-05-14T11:22:30;5.63;;;5.13;;
64868;SDS011;51349;52.424;10.840;2023-05-14T11:27:35;4.60;;;4.30;;
64868;SDS011;51349;52.424;10.840;2023-05-14T11:32:37;5.30;;;4.80;;
64868;SDS011;51349;52.424;10.840;2023-05-14T11:37:38;4.50;;;4.10;;
64868;SDS011;51349;52.424;10.840;2023-05-14T11:42:39;4.60;;;4.20;;
64868;SDS011;51349;52.424;10.840;2023-05-14T11:47:40;5.20;;;4.43;;
64868;SDS011;51349;52.424;10.840;2023-05-14T11:52:41;5.60;;;4.65;;
64868;SDS011;51349;52.424;10.840;2023-05-14T11:57:42;5.40;;;3.88;;
64868;SDS011;51349;52.424;10.840;2023-05-14T12:02:43;4.75;;;4.00;;
64868;SDS011;51349;52.424;10.840;2023-05-14T12:07:44;3.90;;;3.60;;
64868;SDS011;51349;52.424;10.840;2023-05-14T12:12:46;5.40;;;3.80;;
64868;SDS011;51349;52.424;10.840;2023-05-14T12:17:50;5.72;;;3.90;;
64868;SDS011;51349;52.424;10.840;2023-05-14T12:22:51;4.85;;;3.95;;
64868;SDS011;51349;52.424;10.840;2023-05-14T12:27:52;4.10;;;3.72;;
64868;SDS011;51349;52.424;10.840;2023-05-14T12:32:52;3.90;;;3.60;;
64868;SDS011;51349;52.424;10.840;2023-05-14T12:37:53;4.90;;;3.83;;
64868;SDS011;51349;52.424;10.840;2023-05-14T12:42:54;3.83;;;3.53;;
64868;SDS011;51349;52.424;10.840;2023-05-14T12:47:55;7.20;;;3.88;;
64868;SDS011;51349;52.424;10.840;2023-05-14T12:52:55;5.38;;;3.75;;
64868;SDS011;51349;52.424;10.840;2023-05-14T12:57:56;4.25;;;3.80;;
64868;SDS011;51349;52.424;10.840;2023-05-14T13:02:57;3.90;;;3.60;;
64868;SDS011;51349;52.424;10.840;2023-05-14T13:07:59;4.30;;;4.00;;
64868;SDS011;51349;52.424;10.840;2023-05-14T13:13:02;4.28;;;3.90;;
64868;SDS011;51349;52.424;10.840;2023-05-14T13:18:03;3.97;;;3.67;;
64868;SDS011;51349;52.424;10.840;2023-05-14T13:23:04;4.00;;;3.60;;
64868;SDS011;51349;52.424;10.840;2023-05-14T13:28:04;4.00;;;3.70;;
64868;SDS011;51349;52.424;10.840;2023-05-14T13:33:05;6.90;;;3.90;;
64868;SDS011;51349;52.424;10.840;2023-05-14T13:38:06;4.25;;;3.95;;
64868;SDS011;51349;52.424;10.840;2023-05-14T13:43:06;4.78;;;4.40;;
64868;SDS011;51349;52.424;10.840;2023-05-14T13:48:09;3.97;;;3.67;;
64868;SDS011;51349;52.424;10.840;2023-05-14T13:53:09;4.30;;;3.88;;
64868;SDS011;51349;52.424;10.840;2023-05-14T13:58:10;5.25;;;4.40;;
64868;SDS011;51349;52.424;10.840;2023-05-14T14:03:11;3.83;;;3.53;;
64868;SDS011;51349;52.424;10.840;2023-05-14T14:08:11;5.32;;;3.47;;
64868;SDS011;51349;52.424;10.840;2023-05-14T14:13:12;4.40;;;3.95;;
64868;SDS011;51349;52.424;10.840;2023-05-14T14:18:13;4.93;;;3.97;;
64868;SDS011;51349;52.424;10.840;2023-05-14T14:23:13;8.38;;;3.80;;
64868;SDS011;51349;52.424;10.840;2023-05-14T14:28:14;3.58;;;3.28;;
64868;SDS011;51349;52.424;10.840;2023-05-14T14:33:15;4.78;;;3.53;;
64868;SDS011;51349;52.424;10.840;2023-05-14T14:38:15;4.05;;;3.65;;
64868;SDS011;51349;52.424;10.840;2023-05-14T14:49:13;3.95;;;3.60;;
64868;SDS011;51349;52.424;10.840;2023-05-14T14:54:14;3.47;;;3.28;;
64868;SDS011;51349;52.424;10.840;2023-05-14T14:59:14;3.67;;;3.47;;
64868;SDS011;51349;52.424;10.840;2023-05-14T15:04:15;4.20;;;3.90;;
64868;SDS011;51349;52.424;10.840;2023-05-14T15:09:16;3.95;;;3.22;;
64868;SDS011;51349;52.424;10.840;2023-05-14T15:14:16;6.13;;;3.40;;
64868;SDS011;51349;52.424;10.840;2023-05-14T15:19:17;3.95;;;3.40;;
64868;SDS011;51349;52.424;10.840;2023-05-14T15:24:18;4.10;;;3.30;;
64868;SDS011;51349;52.424;10.840;2023-05-14T15:29:18;3.75;;;3.38;;
64868;SDS011;51349;52.424;10.840;2023-05-14T15:34:19;4.22;;;3.80;;
64868;SDS011;51349;52.424;10.840;2023-05-14T15:39:20;3.75;;;3.50;;
64868;SDS011;51349;52.424;10.840;2023-05-14T15:44:21;3.95;;;3.63;;
64868;SDS011;51349;52.424;10.840;2023-05-14T15:49:21;4.28;;;3.88;;
64868;SDS011;51349;52.424;10.840;2023-05-14T15:54:22;3.90;;;3.70;;
64868;SDS011;51349;52.424;10.840;2023-05-14T15:59:25;4.38;;;3.70;;
64868;SDS011;51349;52.424;10.840;2023-05-14T16:04:25;3.70;;;3.50;;
64868;SDS011;51349;52.424;10.840;2023-05-14T16:09:26;4.65;;;3.72;;
64868;SDS011;51349;52.424;10.840;2023-05-14T16:14:27;3.75;;;3.45;;
64868;SDS011;51349;52.424;10.840;2023-05-14T16:19:32;3.90;;;3.67;;
64868;SDS011;51349;52.424;10.840;2023-05-14T16:24:33;4.15;;;3.85;;
64868;SDS011;51349;52.424;10.840;2023-05-14T16:29:33;4.30;;;4.00;;
64868;SDS011;51349;52.424;10.840;2023-05-14T16:34:34;4.20;;;3.90;;
64868;SDS011;51349;52.424;10.840;2023-05-14T16:39:38;4.45;;;4.05;;
64868;SDS011;51349;52.424;10.840;2023-05-14T16:44:38;3.97;;;3.67;;
64868;SDS011;51349;52.424;10.840;2023-05-14T16:49:39;4.18;;;3.88;;
64868;SDS011;51349;52.424;10.840;2023-05-14T16:54:40;4.35;;;3.90;;
64868;SDS011;51349;52.424;10.840;2023-05-14T16:59:40;5.85;;;4.30;;
64868;SDS011;51349;52.424;10.840;2023-05-14T17:04:41;4.50;;;3.90;;
64868;SDS011;51349;52.424;10.840;2023-05-14T17:09:42;5.07;;;4.05;;
64868;SDS011;51349;52.424;10.840;2023-05-14T17:14:42;4.05;;;3.83;;
64868;SDS011;51349;52.424;10.840;2023-05-14T17:19:43;4.75;;;4.35;;
64868;SDS011;51349;52.424;10.840;2023-05-14T17:24:45;4.05;;;3.80;;
64868;SDS011;51349;52.424;10.840;2023-05-14T17:29:45;4.22;;;4.00;;
64868;SDS011;51349;52.424;10.840;2023-05-14T17:34:48;4.95;;;4.22;;
64868;SDS011;51349;52.424;10.840;2023-05-14T17:39:49;4.93;;;4.43;;
64868;SDS011;51349;52.424;10.840;2023-05-14T17:44:50;6.18;;;5.60;;
64868;SDS011;51349;52.424;10.840;2023-05-14T17:49:50;5.10;;;4.18;;
64868;SDS011;51349;52.424;10.840;2023-05-14T17:54:51;4.82;;;4.47;;
64868;SDS011;51349;52.424;10.840;2023-05-14T17:59:52;4.50;;;4.10;;
64868;SDS011;51349;52.424;10.840;2023-05-14T18:04:53;4.47;;;4.10;;
64868;SDS011;51349;52.424;10.840;2023-05-14T18:09:53;4.20;;;3.90;;
64868;SDS011;51349;52.424;10.840;2023-05-14T18:14:54;4.40;;;4.00;;
64868;SDS011;51349;52.424;10.840;2023-05-14T18:19:55;5.13;;;4.22;;
64868;SDS011;51349;52.424;10.840;2023-05-14T18:24:55;6.10;;;4.57;;
64868;SDS011;51349;52.424;10.840;2023-05-14T18:29:56;4.72;;;4.32;;
64868;SDS011;51349;52.424;10.840;2023-05-14T18:34:57;4.55;;;4.15;;
64868;SDS011;51349;52.424;10.840;2023-05-14T18:39:57;4.88;;;4.22;;
64868;SDS011;51349;52.424;10.840;2023-05-14T18:44:58;4.80;;;4.40;;
64868;SDS011;51349;52.424;10.840;2023-05-14T18:49:59;5.60;;;4.35;;
64868;SDS011;51349;52.424;10.840;2023-05-14T18:55:00;4.70;;;4.30;;
64868;SDS011;51349;52.424;10.840;2023-05-14T19:00:01;5.18;;;4.50;;
64868;SDS011;51349;52.424;10.840;2023-05-14T19:05:03;4.70;;;4.30;;
64868;SDS011;51349;52.424;10.840;2023-05-14T19:10:04;4.45;;;4.05;;
64868;SDS011;51349;52.424;10.840;2023-05-14T19:15:05;4.80;;;4.38;;
64868;SDS011;51349;52.424;10.840;2023-05-14T19:20:06;5.50;;;5.10;;
64868;SDS011;51349;52.424;10.840;2023-05-14T19:25:08;4.68;;;4.30;;
64868;SDS011;51349;52.424;10.840;2023-05-14T19:30:10;4.88;;;4.53;;
64868;SDS011;51349;52.424;10.840;2023-05-14T19:35:11;4.80;;;4.40;;
64868;SDS011;51349;52.424;10.840;2023-05-14T19:40:12;5.18;;;4.78;;
64868;SDS011;51349;52.424;10.840;2023-05-14T19:45:12;4.97;;;4.53;;
64868;SDS011;51349;52.424;10.840;2023-05-14T19:50:13;5.63;;;5.30;;
64868;SDS011;51349;52.424;10.840;2023-05-14T19:55:14;5.20;;;4.90;;
64868;SDS011;51349;52.424;10.840;2023-05-14T20:00:15;5.47;;;4.97;;
64868;SDS011;51349;52.424;10.840;2023-05-14T20:05:16;5.40;;;5.00;;
64868;SDS011;51349;52.424;10.840;2023-05-14T20:10:17;7.70;;;4.93;;
64868;SDS011;51349;52.424;10.840;2023-05-14T20:15:17;5.80;;;5.30;;
64868;SDS011;51349;52.424;10.840;2023-05-14T20:20:18;7.38;;;6.78;;
64868;SDS011;51349;52.424;10.840;2023-05-14T20:25:20;6.88;;;5.85;;
64868;SDS011;51349;52.424;10.840;2023-05-14T20:30:20;6.05;;;5.55;;
64868;SDS011;51349;52.424;10.840;2023-05-14T20:35:21;8.55;;;5.65;;
64868;SDS011;51349;52.424;10.840;2023-05-14T20:40:28;7.53;;;5.18;;
64868;SDS011;51349;52.424;10.840;2023-05-14T20:45:28;5.72;;;5.32;;
64868;SDS011;51349;52.424;10.840;2023-05-14T20:50:29;5.90;;;5.50;;
64868;SDS011;51349;52.424;10.840;2023-05-14T20:55:30;5.93;;;5.38;;
64868;SDS011;51349;52.424;10.840;2023-05-14T21:00:30;6.38;;;5.80;;
64868;SDS011;51349;52.424;10.840;2023-05-14T21:05:31;7.88;;;7.05;;
64868;SDS011;51349;52.424;10.840;2023-05-14T21:10:32;7.32;;;6.20;;
64868;SDS011;51349;52.424;10.840;2023-05-14T21:15:32;6.80;;;5.82;;
64868;SDS011;51349;52.424;10.840;2023-05-14T21:20:33;6.65;;;6.03;;
64868;SDS011;51349;52.424;10.840;2023-05-14T21:25:35;8.68;;;7.70;;
64868;SDS011;51349;52.424;10.840;2023-05-14T21:30:36;6.90;;;6.30;;
64868;SDS011;51349;52.424;10.840;2023-05-14T21:35:37;6.75;;;6.05;;
64868;SDS011;51349;52.424;10.840;2023-05-14T21:40:37;6.10;;;5.63;;
64868;SDS011;51349;52.424;10.840;2023-05-14T21:45:38;6.70;;;5.95;;
64868;SDS011;51349;52.424;10.840;2023-05-14T21:50:39;6.43;;;5.93;;
64868;SDS011;51349;52.424;10.840;2023-05-14T21:55:39;5.93;;;5.43;;
64868;SDS011;51349;52.424;10.840;2023-05-14T22:00:40;6.78;;;5.68;;
64868;SDS011;51349;52.424;10.840;2023-05-14T22:05:44;7.75;;;6.97;;
64868;SDS011;51349;52.424;10.840;2023-05-14T22:10:45;8.23;;;6.28;;
64868;SDS011;51349;52.424;10.840;2023-05-14T22:15:46;7.25;;;6.55;;
64868;SDS011;51349;52.424;10.840;2023-05-14T22:20:47;6.32;;;5.93;;
64868;SDS011;51349;52.424;10.840;2023-05-14T22:25:47;6.65;;;6.10;;
64868;SDS011;51349;52.424;10.840;2023-05-14T22:30:48;6.43;;;5.93;;
64868;SDS011;51349;52.424;10.840;2023-05-14T22:35:49;6.10;;;5.50;;
64868;SDS011;51349;52.424;10.840;2023-05-14T22:40:50;5.82;;;5.32;;
64868;SDS011;51349;52.424;10.840;2023-05-14T22:45:51;6.00;;;5.60;;
64868;SDS011;51349;52.424;10.840;2023-05-14T22:50:51;6.57;;;5.97;;
64868;SDS011;51349;52.424;10.840;2023-05-14T22:55:52;6.72;;;6.22;;
64868;SDS011;51349;52.424;10.840;2023-05-14T23:00:53;6.70;;;6.10;;
64868;SDS011;51349;52.424;10.840;2023-05-14T23:05:53;6.30;;;5.70;;
64868;SDS011;51349;52.424;10.840;2023-05-14T23:10:54;5.75;;;5.35;;
64868;SDS011;51349;52.424;10.840;2023-05-14T23:15:55;6.47;;;5.80;;
64868;SDS011;51349;52.424;10.840;2023-05-14T23:20:55;5.95;;;5.47;;
64868;SDS011;51349;52.424;10.840;2023-05-14T23:25:56;6.25;;;5.65;;
64868;SDS011;51349;52.424;10.840;2023-05-14T23:30:57;6.22;;;5.72;;
64868;SDS011;51349;52.424;10.840;2023-05-14T23:36:01;6.47;;;5.43;;
64868;SDS011;51349;52.424;10.840;2023-05-14T23:41:02;6.93;;;6.28;;
64868;SDS011;51349;52.424;10.840;2023-05-14T23:46:03;6.45;;;6.00;;
64868;SDS011;51349;52.424;10.840;2023-05-14T23:51:04;6.55;;;6.05;;
64868;SDS011;51349;52.424;10.840;2023-05-14T23:56:05;6.38;;;5.80;;
